HORACE LAKE: From 07/20/2018 16:00 to 09/19/2018 02:00

Date LAKE ELEVATION [FT] PRECIPITATION INCREMENT [IN] AIR TEMPERATURE [F] RELATIVE HUMIDITY [%] RELEASE [CFS]
09/18/2018 20:00 655.77 0.00 71.4 100.0 --
09/18/2018 19:00 655.77 0.00 76.8 82.0 --
09/18/2018 18:00 655.76 0.00 77.4 82.0 --
09/18/2018 17:00 655.75 0.00 73.7 100.0 --
09/18/2018 16:00 655.74 0.00 73.6 100.0 --
09/18/2018 15:00 655.74 0.00 71.4 100.0 --
09/18/2018 14:00 655.73 0.00 69.0 100.0 --
09/18/2018 13:00 655.73 0.00 69.0 100.0 --
09/18/2018 12:00 655.73 0.21 67.3 100.0 --
09/18/2018 11:00 655.70 0.32 66.6 100.0 --
09/18/2018 10:00 655.66 0.37 66.8 100.0 --
09/18/2018 09:00 655.65 0.00 66.8 100.0 --
09/18/2018 08:00 655.65 0.06 66.8 100.0 --
09/18/2018 07:00 655.64 0.07 67.7 100.0 --
09/18/2018 06:00 655.63 0.00 68.6 100.0 --
09/18/2018 05:00 655.63 0.01 68.6 100.0 --
09/18/2018 04:00 655.64 0.05 68.6 100.0 --
09/18/2018 03:00 655.63 0.01 69.6 100.0 --
09/18/2018 02:00 655.64 0.00 71.2 91.0 --
09/18/2018 01:00 655.64 0.00 70.3 94.0 --
09/18/2018 00:00 655.64 0.00 70.3 94.0 --
09/17/2018 23:00 655.63 0.00 66.7 100.0 --
09/17/2018 22:00 655.64 0.00 72.3 74.0 --
09/17/2018 21:00 655.63 0.00 73.4 72.0 --
09/17/2018 20:00 655.64 0.00 75.1 73.0 --
09/17/2018 19:00 655.64 0.00 75.1 73.0 --
09/17/2018 18:00 655.65 0.00 76.9 65.0 --
09/17/2018 17:00 655.65 0.00 78.7 59.0 --
09/17/2018 16:00 655.65 0.00 79.2 56.0 --
09/17/2018 15:00 655.65 0.00 79.5 57.0 --
09/17/2018 14:00 655.65 0.00 79.5 57.0 --
09/17/2018 13:00 655.65 0.00 77.9 60.0 --
09/17/2018 12:00 655.65 0.00 73.4 88.0 --
09/17/2018 11:00 655.65 0.00 70.6 100.0 --
09/17/2018 10:00 655.65 0.00 65.0 100.0 --
09/17/2018 09:00 655.65 0.00 65.0 100.0 --
09/17/2018 08:00 655.65 0.00 63.5 100.0 --
09/17/2018 07:00 655.65 0.00 63.5 100.0 --
09/17/2018 06:00 655.65 0.00 64.6 100.0 --
09/17/2018 05:00 655.66 0.00 65.0 100.0 --
09/17/2018 04:00 655.66 0.00 65.0 100.0 --
09/17/2018 03:00 655.66 0.00 65.1 100.0 --
09/17/2018 02:00 655.66 0.00 66.2 100.0 --
09/17/2018 01:00 655.66 0.00 67.6 100.0 --
09/17/2018 00:00 655.66 0.00 68.8 100.0 --
09/16/2018 23:00 655.66 0.00 68.8 100.0 --
09/16/2018 22:00 655.66 0.00 70.1 100.0 --
09/16/2018 21:00 655.66 0.00 70.5 100.0 --
09/16/2018 20:00 655.66 0.00 72.7 98.0 --
09/16/2018 19:00 655.66 0.00 75.8 90.0 --
09/16/2018 18:00 655.67 0.00 80.5 76.0 --
09/16/2018 17:00 655.67 0.00 82.3 65.0 --
09/16/2018 16:00 655.67 0.00 82.3 65.0 --
09/16/2018 15:00 655.66 0.00 80.9 68.0 --
09/16/2018 14:00 655.68 0.00 79.8 78.0 --
09/16/2018 13:00 655.68 0.00 79.8 78.0 --
09/16/2018 12:00 655.67 0.00 76.9 83.0 --
09/16/2018 11:00 655.67 0.00 67.9 100.0 --
09/16/2018 10:00 655.68 0.00 63.2 100.0 --
09/16/2018 09:00 655.68 0.00 61.4 100.0 --
09/16/2018 08:00 655.68 0.00 61.4 100.0 --
09/16/2018 07:00 655.67 0.00 61.4 100.0 --
09/16/2018 06:00 655.68 0.00 61.6 100.0 --
09/16/2018 05:00 655.68 0.00 61.6 100.0 --
09/16/2018 04:00 655.68 0.00 62.6 100.0 --
09/16/2018 03:00 655.67 0.00 61.8 100.0 --
09/16/2018 02:00 655.68 0.00 63.5 100.0 --
09/16/2018 01:00 655.68 0.00 63.5 100.0 --
09/16/2018 00:00 655.68 0.00 64.0 100.0 --
09/15/2018 23:00 655.68 0.00 65.1 100.0 --
09/15/2018 22:00 655.69 0.00 65.7 100.0 --
09/15/2018 21:00 655.68 0.00 67.4 97.0 --
09/15/2018 20:00 655.69 0.00 71.2 84.0 --
09/15/2018 19:00 655.69 0.00 73.1 76.0 --
09/15/2018 18:00 655.69 0.00 73.1 76.0 --
09/15/2018 17:00 655.69 0.00 75.1 65.0 --
09/15/2018 16:00 655.69 0.00 74.7 72.0 --
09/15/2018 15:00 655.70 0.00 72.3 81.0 --
09/15/2018 14:00 655.69 0.00 67.8 94.0 --
09/15/2018 13:00 655.70 0.00 65.8 100.0 --
09/15/2018 12:00 655.70 0.00 64.3 100.0 --
09/15/2018 11:00 655.71 0.00 63.1 100.0 --
09/15/2018 10:00 655.71 0.00 63.1 100.0 --
09/15/2018 09:00 655.70 0.00 63.0 100.0 --
09/15/2018 08:00 655.71 0.00 63.8 100.0 --
09/15/2018 07:00 655.71 0.00 64.2 100.0 --
09/15/2018 06:00 655.71 0.00 64.1 100.0 --
09/15/2018 05:00 655.70 0.00 64.3 100.0 --
09/15/2018 04:00 655.72 0.00 64.7 100.0 --
09/15/2018 03:00 655.71 0.00 64.4 100.0 --
09/15/2018 02:00 655.71 0.00 65.0 100.0 --
09/15/2018 01:00 655.72 0.00 63.9 100.0 --
09/15/2018 00:00 655.72 0.00 63.9 100.0 --
09/14/2018 23:00 655.71 0.00 62.8 100.0 --
09/14/2018 22:00 655.72 0.00 65.0 100.0 --
09/14/2018 21:00 655.72 0.00 67.6 100.0 --
09/14/2018 20:00 655.73 0.00 71.1 86.0 --
09/14/2018 19:00 655.72 0.00 74.6 74.0 --
09/14/2018 18:00 655.72 0.00 71.2 84.0 --
09/14/2018 17:00 655.73 0.00 76.4 62.0 --
09/14/2018 16:00 655.74 0.00 73.3 74.0 --
09/14/2018 15:00 655.73 0.00 71.8 87.0 --
09/14/2018 14:00 655.73 0.00 71.8 87.0 --
09/14/2018 13:00 655.74 0.00 69.3 100.0 --
09/14/2018 12:00 655.73 0.00 64.0 100.0 --
09/14/2018 11:00 655.74 0.00 62.3 100.0 --
09/14/2018 10:00 655.74 0.00 59.1 100.0 --
09/14/2018 09:00 655.74 0.00 58.5 100.0 --
09/14/2018 08:00 655.75 0.00 58.0 100.0 --
09/14/2018 07:00 655.74 0.00 57.6 100.0 --
09/14/2018 06:00 655.74 0.00 58.3 100.0 --
09/14/2018 05:00 655.76 0.00 58.9 100.0 --
09/14/2018 04:00 655.76 0.00 58.9 100.0 --
09/14/2018 03:00 655.76 0.00 60.4 100.0 --
09/14/2018 02:00 655.76 0.00 60.7 100.0 --
09/14/2018 01:00 655.75 0.00 62.0 100.0 --
09/14/2018 00:00 655.76 0.00 63.3 100.0 --
09/13/2018 23:00 655.76 0.00 63.3 100.0 --
09/13/2018 22:00 655.77 0.00 64.3 100.0 --
09/13/2018 21:00 655.77 0.00 67.3 100.0 --
09/13/2018 20:00 655.77 0.00 72.5 84.0 --
09/13/2018 19:00 655.77 0.00 73.1 83.0 --
09/13/2018 18:00 655.77 0.00 73.1 83.0 --
09/13/2018 17:00 655.77 0.00 72.8 81.0 --
09/13/2018 16:00 655.77 0.00 71.4 88.0 --
09/13/2018 15:00 655.78 0.00 69.0 100.0 --
09/13/2018 14:00 655.79 0.00 67.3 100.0 --
09/13/2018 13:00 655.79 0.00 65.7 100.0 --
09/13/2018 12:00 655.78 0.00 64.9 100.0 --
09/13/2018 11:00 655.79 0.00 63.4 100.0 --
09/13/2018 10:00 655.80 0.00 62.1 100.0 --
09/13/2018 09:00 655.80 0.00 61.6 100.0 --
09/13/2018 08:00 655.80 0.01 61.6 100.0 --
09/13/2018 07:00 655.80 0.01 62.1 100.0 --
09/13/2018 06:00 655.80 0.00 62.0 100.0 --
09/13/2018 05:00 655.80 0.00 62.3 100.0 --
09/13/2018 04:00 655.81 0.00 62.1 100.0 --
09/13/2018 03:00 655.81 0.00 62.2 100.0 --
09/13/2018 02:00 655.82 0.00 62.4 100.0 --
09/13/2018 01:00 655.82 0.00 62.7 100.0 --
09/13/2018 00:00 655.82 0.00 62.4 100.0 --
09/12/2018 23:00 655.82 0.00 62.3 100.0 --
09/12/2018 22:00 655.83 0.00 62.7 100.0 --
09/12/2018 21:00 655.83 0.00 63.2 100.0 --
09/12/2018 20:00 655.83 0.00 63.5 100.0 --
09/12/2018 19:00 655.82 0.00 63.3 100.0 --
09/12/2018 18:00 655.83 0.00 63.7 100.0 --
09/12/2018 17:00 655.84 0.04 63.4 100.0 --
09/12/2018 16:00 655.84 0.00 63.3 100.0 --
09/12/2018 15:00 655.84 0.00 64.6 100.0 --
09/12/2018 14:00 655.84 0.04 64.7 100.0 --
09/12/2018 13:00 655.85 0.00 64.8 100.0 --
09/12/2018 12:00 655.85 0.00 64.8 100.0 --
09/12/2018 11:00 655.86 0.01 64.7 100.0 --
09/12/2018 10:00 655.86 0.00 64.8 100.0 --
09/12/2018 09:00 655.86 0.00 64.7 100.0 --
09/12/2018 08:00 655.86 0.00 64.9 100.0 --
09/12/2018 07:00 655.86 0.00 64.9 100.0 --
09/12/2018 06:00 655.86 0.00 64.8 100.0 --
09/12/2018 05:00 655.87 0.00 65.6 100.0 --
09/12/2018 04:00 655.87 0.00 65.6 100.0 --
09/12/2018 03:00 655.86 0.01 65.5 100.0 --
09/12/2018 02:00 655.87 0.00 65.6 100.0 --
09/12/2018 01:00 655.87 0.00 65.6 100.0 --
09/12/2018 00:00 655.86 0.00 65.7 100.0 --
09/11/2018 23:00 655.86 0.00 66.2 100.0 --
09/11/2018 22:00 655.86 0.00 66.5 100.0 --
09/11/2018 21:00 655.86 0.00 66.5 100.0 --
09/11/2018 20:00 655.85 0.00 67.4 100.0 --
09/11/2018 19:00 655.86 0.00 69.8 100.0 --
09/11/2018 18:00 655.85 0.00 68.5 100.0 --
09/11/2018 17:00 655.85 0.00 68.3 100.0 --
09/11/2018 16:00 655.85 0.00 68.4 99.0 --
09/11/2018 15:00 655.84 0.00 65.7 100.0 --
09/11/2018 14:00 655.84 0.00 62.5 100.0 --
09/11/2018 13:00 655.83 0.00 61.8 100.0 --
09/11/2018 12:00 655.83 0.00 59.6 100.0 --
09/11/2018 11:00 655.82 0.00 59.2 100.0 --
09/11/2018 10:00 655.80 0.00 58.6 100.0 --
09/11/2018 09:00 655.80 0.00 58.6 100.0 --
09/11/2018 08:00 655.79 0.03 57.8 100.0 --
09/11/2018 07:00 655.77 0.00 57.1 100.0 --
09/11/2018 06:00 655.77 0.08 57.1 100.0 --
09/11/2018 05:00 655.75 0.29 56.7 100.0 --
09/11/2018 04:00 655.72 0.09 56.8 100.0 --
09/11/2018 03:00 655.71 0.51 57.5 100.0 --
09/11/2018 02:00 655.65 0.00 57.8 100.0 --
09/11/2018 01:00 655.65 0.28 57.8 100.0 --
09/11/2018 00:00 655.65 0.50 57.5 100.0 --
09/10/2018 23:00 655.59 0.10 56.4 100.0 --
09/10/2018 22:00 655.59 0.11 56.3 100.0 --
09/10/2018 21:00 655.57 0.00 56.9 100.0 --
09/10/2018 20:00 655.57 0.10 56.9 100.0 --
09/10/2018 19:00 655.57 0.06 57.5 100.0 --
09/10/2018 18:00 655.57 0.02 57.7 100.0 --
09/10/2018 17:00 655.56 0.00 58.7 88.0 --
09/10/2018 16:00 655.55 0.00 59.7 82.0 --
09/10/2018 15:00 655.56 0.00 60.0 77.0 --
09/10/2018 14:00 655.57 0.00 59.3 78.0 --
09/10/2018 13:00 655.56 0.00 54.2 87.0 --
09/10/2018 12:00 655.56 0.00 51.3 94.0 --
09/10/2018 11:00 655.55 0.00 49.5 100.0 --
09/10/2018 10:00 655.55 0.00 47.5 100.0 --
09/10/2018 09:00 655.56 0.00 46.5 100.0 --
09/10/2018 08:00 655.56 0.00 46.3 100.0 --
09/10/2018 07:00 655.56 0.00 45.9 100.0 --
09/10/2018 06:00 655.56 0.00 45.5 100.0 --
09/10/2018 05:00 655.56 0.00 45.6 100.0 --
09/10/2018 04:00 655.57 0.00 46.1 100.0 --
09/10/2018 03:00 655.55 0.00 46.4 100.0 --
09/10/2018 02:00 655.56 0.00 46.7 100.0 --
09/10/2018 01:00 655.56 0.00 47.4 100.0 --
09/10/2018 00:00 655.56 0.00 47.4 100.0 --
09/09/2018 23:00 655.56 0.00 48.2 100.0 --
09/09/2018 22:00 655.55 0.00 51.2 99.0 --
09/09/2018 21:00 655.56 0.00 54.1 88.0 --
09/09/2018 20:00 655.56 0.00 56.9 76.0 --
09/09/2018 19:00 655.56 0.00 58.9 65.0 --
09/09/2018 18:00 655.56 0.00 59.1 60.0 --
09/09/2018 17:00 655.57 0.00 59.1 58.0 --
09/09/2018 16:00 655.57 0.00 57.4 56.0 --
09/09/2018 15:00 655.57 0.00 57.3 59.0 --
09/09/2018 14:00 655.57 0.00 57.3 59.0 --
09/09/2018 13:00 655.56 0.00 55.9 61.0 --
09/09/2018 12:00 655.56 0.00 52.3 70.0 --
09/09/2018 11:00 655.56 0.00 51.6 79.0 --
09/09/2018 10:00 655.56 0.00 47.5 100.0 --
09/09/2018 09:00 655.56 0.00 44.4 100.0 --
09/09/2018 08:00 655.57 0.00 44.7 100.0 --
09/09/2018 07:00 655.57 0.00 44.7 100.0 --
09/09/2018 06:00 655.57 0.00 45.1 98.0 --
09/09/2018 05:00 655.56 0.00 46.7 97.0 --
09/09/2018 04:00 655.56 0.00 47.6 96.0 --
09/09/2018 03:00 655.56 0.00 48.4 93.0 --
09/09/2018 02:00 655.57 0.00 50.0 85.0 --
09/09/2018 01:00 655.57 0.00 49.4 93.0 --
09/09/2018 00:00 655.57 0.00 49.6 93.2 --
09/08/2018 23:00 655.57 0.00 49.9 93.3 --
09/08/2018 22:00 655.57 0.00 50.1 93.5 --
09/08/2018 21:00 655.57 0.00 50.3 93.7 --
09/08/2018 20:00 655.57 0.00 50.5 93.9 --
09/08/2018 19:00 655.57 0.00 50.8 94.0 --
09/08/2018 18:00 655.57 0.00 51.0 94.2 --
09/08/2018 17:00 655.57 0.00 51.2 94.4 --
09/08/2018 16:00 655.57 0.00 51.5 94.6 --
09/08/2018 15:00 655.57 0.00 51.7 94.8 --
09/08/2018 14:00 655.57 0.00 51.9 94.9 --
09/08/2018 13:00 655.57 0.00 52.2 95.1 --
09/08/2018 12:00 655.57 0.00 52.4 95.3 --
09/08/2018 11:00 655.57 0.00 52.6 95.5 --
09/08/2018 10:00 655.57 0.00 52.9 95.6 --
09/08/2018 09:00 655.57 0.00 53.1 95.8 --
09/08/2018 08:00 655.57 0.00 53.3 96.0 --
09/08/2018 07:00 655.57 0.00 53.5 96.2 --
09/08/2018 06:00 655.57 0.00 53.8 96.3 --
09/08/2018 05:00 655.57 0.00 54.0 96.5 --
09/08/2018 04:00 655.57 0.00 54.2 96.7 --
09/08/2018 03:00 655.57 0.00 54.5 96.8 --
09/08/2018 02:00 655.57 0.00 54.7 97.0 --
09/08/2018 01:00 655.57 0.00 54.9 97.2 --
09/08/2018 00:00 655.57 0.00 55.1 97.4 --
09/07/2018 23:00 655.57 0.00 55.4 97.5 --
09/07/2018 22:00 655.57 0.00 55.6 97.7 --
09/07/2018 21:00 655.57 0.00 55.8 97.9 --
09/07/2018 20:00 655.57 0.00 56.1 98.1 --
09/07/2018 19:00 655.57 0.00 56.3 98.3 --
09/07/2018 18:00 655.57 0.00 56.5 98.4 --
09/07/2018 17:00 655.57 0.00 56.8 98.6 --
09/07/2018 16:00 655.57 0.00 57.0 98.8 --
09/07/2018 15:00 655.57 0.00 57.2 99.0 --
09/07/2018 14:00 655.57 0.00 57.5 99.1 --
09/07/2018 13:00 655.57 0.00 57.7 99.3 --
09/07/2018 12:00 655.57 0.00 57.9 99.5 --
09/07/2018 11:00 655.57 0.00 58.1 99.7 --
09/07/2018 10:00 655.57 0.00 58.4 99.8 --
09/07/2018 09:00 655.57 0.00 58.6 100.0 --
09/07/2018 08:00 655.58 0.00 57.7 100.0 --
09/07/2018 07:00 655.58 0.00 58.7 100.0 --
09/07/2018 06:00 655.58 0.00 60.6 96.0 --
09/07/2018 05:00 655.58 0.00 62.8 91.0 --
09/07/2018 04:00 655.58 0.00 65.2 85.0 --
09/07/2018 03:00 655.58 0.00 65.2 85.0 --
09/07/2018 02:00 655.59 0.00 66.9 90.0 --
09/07/2018 01:00 655.58 0.00 66.9 100.0 --
09/07/2018 00:00 655.59 0.00 68.0 100.0 --
09/06/2018 23:00 655.59 0.00 69.0 100.0 --
09/06/2018 22:00 655.59 0.00 69.8 100.0 --
09/06/2018 21:00 655.59 0.00 71.4 100.0 --
09/06/2018 20:00 655.58 0.00 71.6 100.0 --
09/06/2018 19:00 655.60 0.00 72.3 99.0 --
09/06/2018 18:00 655.59 0.03 73.3 100.0 --
09/06/2018 17:00 655.57 0.16 71.5 100.0 --
09/06/2018 16:00 655.58 0.00 86.8 59.0 --
09/06/2018 15:00 655.58 0.00 85.7 61.0 --
09/06/2018 14:00 655.58 0.00 83.8 69.0 --
09/06/2018 13:00 655.59 0.00 82.9 70.0 --
09/06/2018 12:00 655.58 0.00 80.7 77.0 --
09/06/2018 11:00 655.59 0.00 78.3 83.0 --
09/06/2018 10:00 655.59 0.00 75.8 91.0 --
09/06/2018 09:00 655.59 0.00 74.7 96.0 --
09/06/2018 08:00 655.58 0.00 75.2 95.0 --
09/06/2018 07:00 655.58 0.00 75.5 95.0 --
09/06/2018 06:00 655.59 0.00 75.5 97.0 --
09/06/2018 05:00 655.58 0.00 75.9 98.0 --
09/06/2018 04:00 655.58 0.00 75.9 98.0 --
09/06/2018 03:00 655.58 0.00 76.1 97.0 --
09/06/2018 02:00 655.59 0.00 76.4 98.0 --
09/06/2018 01:00 655.59 0.00 77.0 94.0 --
09/06/2018 00:00 655.57 0.00 73.6 100.0 --
09/05/2018 23:00 655.58 0.00 75.3 100.0 --
09/05/2018 22:00 655.58 0.00 76.3 97.0 --
09/05/2018 21:00 655.58 0.00 77.6 86.0 --
09/05/2018 20:00 655.57 0.00 86.3 63.0 --
09/05/2018 19:00 655.57 0.00 86.8 55.0 --
09/05/2018 18:00 655.57 0.00 86.8 55.0 --
09/05/2018 17:00 655.57 0.00 86.1 57.0 --
09/05/2018 16:00 655.58 0.00 83.9 57.0 --
09/05/2018 15:00 655.57 0.00 82.2 57.0 --
09/05/2018 14:00 655.57 0.00 82.3 57.0 --
09/05/2018 13:00 655.57 0.00 80.8 60.9 --
09/05/2018 12:00 655.57 0.00 79.2 64.8 --
09/05/2018 11:00 655.57 0.00 77.7 68.7 --
09/05/2018 10:00 655.57 0.00 76.2 72.6 --
09/05/2018 09:00 655.57 0.00 74.7 76.5 --
09/05/2018 08:00 655.57 0.00 73.1 80.5 --
09/05/2018 07:00 655.57 0.00 71.6 84.4 --
09/05/2018 06:00 655.57 0.00 70.1 88.3 --
09/05/2018 05:00 655.57 0.00 68.6 92.2 --
09/05/2018 04:00 655.57 0.00 67.0 96.1 --
09/05/2018 03:00 655.57 0.00 65.5 100.0 --
09/05/2018 02:00 655.57 0.00 67.2 100.0 --
09/05/2018 01:00 655.57 0.00 68.1 100.0 --
09/05/2018 00:00 655.58 0.00 68.2 98.0 --
09/04/2018 23:00 655.57 0.00 69.5 97.0 --
09/04/2018 22:00 655.57 0.00 69.5 97.0 --
09/04/2018 21:00 655.58 0.00 70.3 94.0 --
09/04/2018 20:00 655.58 0.00 78.3 70.0 --
09/04/2018 19:00 655.58 0.00 83.0 49.0 --
09/04/2018 18:00 655.59 0.00 83.8 48.0 --
09/04/2018 17:00 655.59 0.00 83.8 48.0 --
09/04/2018 16:00 655.58 0.00 83.1 48.0 --
09/04/2018 15:00 655.58 0.00 82.0 52.0 --
09/04/2018 14:00 655.59 0.00 80.8 56.0 --
09/04/2018 13:00 655.58 0.00 79.8 69.0 --
09/04/2018 12:00 655.58 0.00 79.8 69.0 --
09/04/2018 11:00 655.58 0.00 78.0 69.0 --
09/04/2018 10:00 655.58 0.00 70.8 100.0 --
09/04/2018 09:00 655.58 0.00 68.6 100.0 --
09/04/2018 08:00 655.58 0.00 70.1 100.0 --
09/04/2018 07:00 655.59 0.00 70.7 100.0 --
09/04/2018 06:00 655.58 0.00 71.1 100.0 --
09/04/2018 05:00 655.59 0.00 72.5 100.0 --
09/04/2018 04:00 655.58 0.00 71.6 100.0 --
09/04/2018 03:00 655.58 0.00 72.3 100.0 --
09/04/2018 02:00 655.58 0.00 72.3 100.0 --
09/04/2018 01:00 655.58 0.00 77.9 82.0 --
09/04/2018 00:00 655.57 0.00 74.1 100.0 --
09/03/2018 23:00 655.58 0.00 76.2 95.0 --
09/03/2018 22:00 655.58 0.00 76.6 95.0 --
09/03/2018 21:00 655.58 0.00 76.6 95.0 --
09/03/2018 20:00 655.58 0.00 80.5 79.0 --
09/03/2018 19:00 655.58 0.00 87.0 59.0 --
09/03/2018 18:00 655.58 0.00 87.7 58.0 --
09/03/2018 17:00 655.58 0.00 86.6 59.0 --
09/03/2018 16:00 655.58 0.00 86.6 59.0 --
09/03/2018 15:00 655.60 0.00 86.1 61.0 --
09/03/2018 14:00 655.60 0.00 82.3 68.0 --
09/03/2018 13:00 655.59 0.00 80.0 74.0 --
09/03/2018 12:00 655.59 0.00 77.1 82.0 --
09/03/2018 11:00 655.59 0.00 77.1 82.0 --
09/03/2018 10:00 655.59 0.00 74.6 88.0 --
09/03/2018 09:00 655.58 0.00 71.1 100.0 --
09/03/2018 08:00 655.60 0.00 71.9 98.0 --
09/03/2018 07:00 655.59 0.00 71.7 98.0 --
09/03/2018 06:00 655.59 0.00 71.9 96.0 --
09/03/2018 05:00 655.59 0.00 72.3 96.0 --
09/03/2018 04:00 655.59 0.00 72.0 98.0 --
09/03/2018 03:00 655.58 0.00 69.7 100.0 --
09/03/2018 02:00 655.58 0.00 70.1 100.0 --
09/03/2018 01:00 655.59 0.00 69.2 100.0 --
09/03/2018 00:00 655.58 0.00 70.0 100.0 --
09/02/2018 23:00 655.59 0.00 70.0 100.0 --
09/02/2018 22:00 655.59 0.00 71.5 98.0 --
09/02/2018 21:00 655.59 0.00 75.9 81.0 --
09/02/2018 20:00 655.59 0.00 75.9 81.0 --
09/02/2018 19:00 655.59 0.00 77.7 79.0 --
09/02/2018 18:00 655.60 0.00 78.8 68.0 --
09/02/2018 17:00 655.61 0.00 78.7 67.0 --
09/02/2018 16:00 655.60 0.00 78.2 67.0 --
09/02/2018 15:00 655.60 0.00 78.2 67.0 --
09/02/2018 14:00 655.60 0.00 77.1 66.0 --
09/02/2018 13:00 655.59 0.00 75.2 71.0 --
09/02/2018 12:00 655.59 0.00 72.1 78.0 --
09/02/2018 11:00 655.60 0.00 60.0 100.0 --
09/02/2018 10:00 655.59 0.00 58.1 100.0 --
09/02/2018 09:00 655.59 0.00 55.8 100.0 --
09/02/2018 08:00 655.60 0.00 56.4 100.0 --
09/02/2018 07:00 655.60 0.00 57.2 100.0 --
09/02/2018 06:00 655.59 0.00 57.5 100.0 --
09/02/2018 05:00 655.59 0.00 57.5 100.0 --
09/02/2018 04:00 655.60 0.00 57.4 100.0 --
09/02/2018 03:00 655.59 0.00 57.7 100.0 --
09/02/2018 02:00 655.60 0.00 58.4 100.0 --
09/02/2018 01:00 655.59 0.00 58.9 100.0 --
09/02/2018 00:00 655.59 0.00 59.8 100.0 --
09/01/2018 23:00 655.59 0.00 60.9 100.0 --
09/01/2018 22:00 655.59 0.00 60.9 100.0 --
09/01/2018 21:00 655.59 0.00 62.5 100.0 --
09/01/2018 20:00 655.60 0.00 70.9 66.0 --
09/01/2018 19:00 655.60 0.00 70.9 66.0 --
09/01/2018 18:00 655.60 0.00 69.8 63.0 --
09/01/2018 17:00 655.59 0.00 68.2 67.0 --
09/01/2018 16:00 655.60 0.00 67.2 67.0 --
09/01/2018 15:00 655.59 0.00 66.0 67.0 --
09/01/2018 14:00 655.60 0.00 65.0 73.0 --
09/01/2018 13:00 655.60 0.00 64.3 72.0 --
09/01/2018 12:00 655.60 0.00 64.3 72.0 --
09/01/2018 11:00 655.60 0.00 63.0 77.0 --
09/01/2018 10:00 655.60 0.00 60.0 97.0 --
09/01/2018 09:00 655.60 0.00 60.0 97.0 --
09/01/2018 08:00 655.61 0.00 55.9 100.0 --
09/01/2018 07:00 655.61 0.00 55.8 100.0 --
09/01/2018 06:00 655.60 0.00 57.2 100.0 --
09/01/2018 05:00 655.61 0.00 56.8 100.0 --
09/01/2018 04:00 655.60 0.00 56.0 100.0 --
09/01/2018 03:00 655.60 0.00 55.3 100.0 --
09/01/2018 02:00 655.61 0.00 57.7 97.0 --
09/01/2018 01:00 655.60 0.00 57.1 91.0 --
09/01/2018 00:00 655.60 0.00 60.0 88.0 --
08/31/2018 23:00 655.60 0.00 60.0 88.0 --
08/31/2018 22:00 655.60 0.00 59.4 92.0 --
08/31/2018 21:00 655.61 0.00 65.8 72.0 --
08/31/2018 20:00 655.61 0.00 68.1 74.0 --
08/31/2018 19:00 655.61 0.00 69.4 72.0 --
08/31/2018 18:00 655.60 0.00 69.4 62.0 --
08/31/2018 17:00 655.61 0.00 70.4 60.0 --
08/31/2018 16:00 655.61 0.00 69.3 59.0 --
08/31/2018 15:00 655.61 0.00 69.8 56.0 --
08/31/2018 14:00 655.61 0.00 68.8 56.0 --
08/31/2018 13:00 655.61 0.00 68.8 56.0 --
08/31/2018 12:00 655.60 0.00 67.5 59.0 --
08/31/2018 11:00 655.61 0.00 63.7 74.0 --
08/31/2018 10:00 655.61 0.00 61.1 88.0 --
08/31/2018 09:00 655.61 0.00 58.4 96.0 --
08/31/2018 08:00 655.61 0.00 58.4 96.0 --
08/31/2018 07:00 655.61 0.00 58.5 93.0 --
08/31/2018 06:00 655.62 0.00 58.6 93.0 --
08/31/2018 05:00 655.61 0.00 58.9 94.0 --
08/31/2018 04:00 655.61 0.00 57.7 100.0 --
08/31/2018 03:00 655.61 0.00 57.7 100.0 --
08/31/2018 02:00 655.61 0.00 58.8 93.0 --
08/31/2018 01:00 655.61 0.00 59.2 87.0 --
08/31/2018 00:00 655.62 0.00 62.3 81.0 --
08/30/2018 23:00 655.61 0.00 63.6 78.0 --
08/30/2018 22:00 655.62 0.00 67.3 71.0 --
08/30/2018 21:00 655.62 0.00 71.8 66.0 --
08/30/2018 20:00 655.62 0.00 77.0 56.0 --
08/30/2018 19:00 655.62 0.00 77.3 55.0 --
08/30/2018 18:00 655.63 0.00 78.2 57.0 --
08/30/2018 17:00 655.63 0.00 78.2 57.0 --
08/30/2018 16:00 655.61 0.00 79.4 56.0 --
08/30/2018 15:00 655.62 0.00 76.9 66.0 --
08/30/2018 14:00 655.63 0.00 75.2 71.0 --
08/30/2018 13:00 655.63 0.00 71.5 88.0 --
08/30/2018 12:00 655.62 0.00 76.3 76.0 --
08/30/2018 11:00 655.63 0.00 76.2 82.0 --
08/30/2018 10:00 655.62 0.00 73.6 90.0 --
08/30/2018 09:00 655.62 0.00 73.3 89.0 --
08/30/2018 08:00 655.62 0.00 72.6 89.0 --
08/30/2018 07:00 655.62 0.00 72.6 89.0 --
08/30/2018 06:00 655.62 0.00 73.7 87.0 --
08/30/2018 05:00 655.62 0.00 74.9 83.0 --
08/30/2018 04:00 655.63 0.00 77.1 74.0 --
08/30/2018 03:00 655.63 0.00 78.1 70.0 --
08/30/2018 02:00 655.63 0.00 78.1 70.0 --
08/30/2018 01:00 655.63 0.00 76.8 78.0 --
08/30/2018 00:00 655.63 0.00 80.7 67.0 --
08/29/2018 23:00 655.63 0.00 76.4 96.0 --
08/29/2018 22:00 655.64 0.00 78.8 90.0 --
08/29/2018 21:00 655.64 0.00 81.0 80.0 --
08/29/2018 20:00 655.64 0.00 88.1 58.0 --
08/29/2018 19:00 655.64 0.00 89.2 53.0 --
08/29/2018 18:00 655.64 0.00 88.9 55.0 --
08/29/2018 17:00 655.64 0.00 88.5 57.0 --
08/29/2018 16:00 655.64 0.00 88.5 57.0 --
08/29/2018 15:00 655.63 0.00 88.1 59.0 --
08/29/2018 14:00 655.65 0.00 87.1 59.0 --
08/29/2018 13:00 655.64 0.00 86.2 62.0 --
08/29/2018 12:00 655.65 0.00 81.4 73.0 --
08/29/2018 11:00 655.65 0.00 81.4 73.0 --
08/29/2018 10:00 655.65 0.00 78.8 79.0 --
08/29/2018 09:00 655.64 0.00 71.0 100.0 --
08/29/2018 08:00 655.65 0.00 70.4 100.0 --
08/29/2018 07:00 655.66 0.00 70.7 100.0 --
08/29/2018 06:00 655.64 0.00 71.5 100.0 --
08/29/2018 05:00 655.65 0.00 72.3 97.0 --
08/29/2018 04:00 655.65 0.00 75.2 86.0 --
08/29/2018 03:00 655.67 0.00 81.5 68.0 --
08/29/2018 02:00 655.66 0.00 80.5 75.0 --
08/29/2018 01:00 655.66 0.00 80.5 75.0 --
08/29/2018 00:00 655.66 0.00 81.0 76.0 --
08/28/2018 23:00 655.65 0.00 82.5 74.0 --
08/28/2018 22:00 655.65 0.00 82.6 75.0 --
08/28/2018 21:00 655.66 0.00 84.7 67.0 --
08/28/2018 20:00 655.66 0.00 84.7 67.0 --
08/28/2018 19:00 655.65 0.00 86.2 66.0 --
08/28/2018 18:00 655.65 0.00 88.0 52.0 --
08/28/2018 17:00 655.67 0.00 88.0 56.0 --
08/28/2018 16:00 655.67 0.00 87.1 60.0 --
08/28/2018 15:00 655.67 0.00 86.4 61.0 --
08/28/2018 14:00 655.67 0.00 84.5 69.0 --
08/28/2018 13:00 655.67 0.00 84.5 69.0 --
08/28/2018 12:00 655.67 0.00 83.2 70.0 --
08/28/2018 11:00 655.68 0.00 76.8 85.0 --
08/28/2018 10:00 655.68 0.00 74.9 91.0 --
08/28/2018 09:00 655.67 0.00 70.3 100.0 --
08/28/2018 08:00 655.67 0.00 70.5 100.0 --
08/28/2018 07:00 655.67 0.00 70.3 100.0 --
08/28/2018 06:00 655.68 0.00 69.7 100.0 --
08/28/2018 05:00 655.68 0.00 69.7 100.0 --
08/28/2018 04:00 655.68 0.00 69.0 100.0 --
08/28/2018 03:00 655.68 0.00 69.6 100.0 --
08/28/2018 02:00 655.68 0.00 70.8 100.0 --
08/28/2018 01:00 655.69 0.00 71.1 100.0 --
08/28/2018 00:00 655.69 0.00 71.0 100.0 --
08/27/2018 23:00 655.68 0.00 72.5 100.0 --
08/27/2018 22:00 655.68 0.00 73.9 99.0 --
08/27/2018 21:00 655.68 0.00 78.1 82.0 --
08/27/2018 20:00 655.68 0.00 77.9 82.0 --
08/27/2018 19:00 655.69 0.00 81.1 71.0 --
08/27/2018 18:00 655.70 0.00 83.0 54.0 --
08/27/2018 17:00 655.70 0.00 83.0 54.0 --
08/27/2018 16:00 655.70 0.00 81.6 58.0 --
08/27/2018 15:00 655.70 0.00 79.6 59.0 --
08/27/2018 14:00 655.69 0.00 77.8 64.0 --
08/27/2018 13:00 655.71 0.00 77.1 67.0 --
08/27/2018 12:00 655.70 0.00 75.6 72.0 --
08/27/2018 11:00 655.71 0.00 72.3 80.0 --
08/27/2018 10:00 655.71 0.00 69.6 91.0 --
08/27/2018 09:00 655.71 0.00 67.4 100.0 --
08/27/2018 08:00 655.71 0.00 67.9 100.0 --
08/27/2018 07:00 655.71 0.00 68.4 99.0 --
08/27/2018 06:00 655.71 0.00 68.1 100.0 --
08/27/2018 05:00 655.72 0.00 69.7 97.0 --
08/27/2018 04:00 655.72 0.00 69.7 97.0 --
08/27/2018 03:00 655.72 0.00 70.1 96.0 --
08/27/2018 02:00 655.72 0.00 69.9 99.0 --
08/27/2018 01:00 655.71 0.00 67.9 100.0 --
08/27/2018 00:00 655.72 0.00 70.2 100.0 --
08/26/2018 23:00 655.72 0.00 70.2 100.0 --
08/26/2018 22:00 655.73 0.00 68.7 100.0 --
08/26/2018 21:00 655.72 0.00 75.2 80.0 --
08/26/2018 20:00 655.72 0.00 76.9 71.0 --
08/26/2018 19:00 655.73 0.00 76.9 70.0 --
08/26/2018 18:00 655.73 0.00 76.9 70.0 --
08/26/2018 17:00 655.74 0.00 78.1 62.0 --
08/26/2018 16:00 655.73 0.00 78.6 48.0 --
08/26/2018 15:00 655.74 0.00 77.7 44.0 --
08/26/2018 14:00 655.75 0.00 75.9 54.0 --
08/26/2018 13:00 655.75 0.00 75.9 54.0 --
08/26/2018 12:00 655.75 0.00 72.2 69.0 --
08/26/2018 11:00 655.75 0.00 69.0 74.0 --
08/26/2018 10:00 655.76 0.00 65.7 84.0 --
08/26/2018 09:00 655.75 0.00 59.1 100.0 --
08/26/2018 08:00 655.75 0.00 59.1 100.0 --
08/26/2018 07:00 655.76 0.00 59.7 100.0 --
08/26/2018 06:00 655.76 0.00 61.8 100.0 --
08/26/2018 05:00 655.77 0.00 61.8 98.0 --
08/26/2018 04:00 655.77 0.00 62.4 100.0 --
08/26/2018 03:00 655.76 0.00 61.0 100.0 --
08/26/2018 02:00 655.77 0.00 62.4 99.0 --
08/26/2018 01:00 655.77 0.00 62.8 100.0 --
08/26/2018 00:00 655.77 0.00 64.3 98.0 --
08/25/2018 23:00 655.78 0.00 66.2 93.0 --
08/25/2018 22:00 655.78 0.00 68.2 90.0 --
08/25/2018 21:00 655.79 0.00 71.7 75.0 --
08/25/2018 20:00 655.79 0.00 76.5 61.0 --
08/25/2018 19:00 655.80 0.00 77.8 58.0 --
08/25/2018 18:00 655.79 0.00 78.2 54.0 --
08/25/2018 17:00 655.80 0.00 77.2 57.0 --
08/25/2018 16:00 655.81 0.00 76.8 55.0 --
08/25/2018 15:00 655.81 0.00 76.5 52.0 --
08/25/2018 14:00 655.82 0.00 75.5 59.0 --
08/25/2018 13:00 655.82 0.00 74.1 64.0 --
08/25/2018 12:00 655.82 0.00 70.1 79.0 --
08/25/2018 11:00 655.82 0.00 66.8 98.0 --
08/25/2018 10:00 655.83 0.00 62.8 100.0 --
08/25/2018 09:00 655.82 0.00 59.9 100.0 --
08/25/2018 08:00 655.84 0.00 60.0 100.0 --
08/25/2018 07:00 655.84 0.00 60.0 100.0 --
08/25/2018 06:00 655.84 0.00 60.7 100.0 --
08/25/2018 05:00 655.84 0.00 61.7 100.0 --
08/25/2018 04:00 655.85 0.00 61.9 100.0 --
08/25/2018 03:00 655.86 0.00 63.0 100.0 --
08/25/2018 02:00 655.87 0.00 64.0 100.0 --
08/25/2018 01:00 655.87 0.00 64.7 100.0 --
08/25/2018 00:00 655.88 0.00 66.0 100.0 --
08/24/2018 23:00 655.87 0.00 67.5 99.0 --
08/24/2018 22:00 655.89 0.00 69.4 96.0 --
08/24/2018 21:00 655.88 0.00 71.4 83.0 --
08/24/2018 20:00 655.89 0.00 74.1 75.0 --
08/24/2018 19:00 655.90 0.00 80.1 57.0 --
08/24/2018 18:00 655.91 0.00 79.4 44.0 --
08/24/2018 17:00 655.91 0.00 79.6 47.0 --
08/24/2018 16:00 655.92 0.00 78.1 47.0 --
08/24/2018 15:00 655.93 0.00 77.8 51.0 --
08/24/2018 14:00 655.93 0.00 74.7 57.0 --
08/24/2018 13:00 655.94 0.00 72.6 65.0 --
08/24/2018 12:00 655.94 0.00 68.7 70.0 --
08/24/2018 11:00 655.95 0.00 62.7 85.0 --
08/24/2018 10:00 655.95 0.00 58.0 100.0 --
08/24/2018 09:00 655.96 0.00 55.2 100.0 --
08/24/2018 08:00 655.97 0.00 55.4 100.0 --
08/24/2018 07:00 655.97 0.00 55.5 100.0 --
08/24/2018 06:00 655.97 0.00 54.7 100.0 --
08/24/2018 05:00 655.98 0.00 55.4 100.0 --
08/24/2018 04:00 655.98 0.00 55.0 100.0 --
08/24/2018 03:00 655.99 0.00 55.0 100.0 --
08/24/2018 02:00 655.99 0.00 55.3 100.0 --
08/24/2018 01:00 655.99 0.00 55.3 100.0 --
08/24/2018 00:00 656.00 0.00 56.5 100.0 --
08/23/2018 23:00 656.00 0.00 58.7 95.0 --
08/23/2018 22:00 656.00 0.00 61.6 84.0 --
08/23/2018 21:00 656.02 0.00 67.0 69.0 --
08/23/2018 20:00 656.02 0.00 67.0 69.0 --
08/23/2018 19:00 656.01 0.00 71.2 46.0 --
08/23/2018 18:00 656.02 0.00 71.5 42.0 --
08/23/2018 17:00 656.03 0.00 71.8 41.0 --
08/23/2018 16:00 656.01 0.00 70.7 45.0 --
08/23/2018 15:00 656.01 0.00 70.7 45.0 --
08/23/2018 14:00 656.01 0.00 69.4 47.0 --
08/23/2018 13:00 656.03 0.00 67.8 50.0 --
08/23/2018 12:00 656.03 0.00 66.5 56.0 --
08/23/2018 11:00 656.03 0.00 62.2 65.0 --
08/23/2018 10:00 656.03 0.00 61.1 71.0 --
08/23/2018 09:00 656.03 0.00 56.5 88.0 --
08/23/2018 08:00 656.02 0.00 59.8 80.0 --
08/23/2018 07:00 656.01 0.00 59.1 88.0 --
08/23/2018 06:00 656.02 0.00 61.0 83.0 --
08/23/2018 05:00 656.02 0.00 61.0 83.0 --
08/23/2018 04:00 656.01 0.00 59.3 95.0 --
08/23/2018 03:00 656.00 0.00 62.8 100.0 --
08/23/2018 02:00 655.99 0.00 63.2 100.0 --
08/23/2018 01:00 655.99 0.00 62.9 100.0 --
08/23/2018 00:00 655.99 0.00 66.3 89.0 --
08/22/2018 23:00 655.98 0.00 67.0 88.0 --
08/22/2018 22:00 655.98 0.00 69.1 86.0 --
08/22/2018 21:00 655.97 0.00 72.2 73.0 --
08/22/2018 20:00 655.97 0.00 71.2 75.0 --
08/22/2018 19:00 655.97 0.00 71.2 75.0 --
08/22/2018 18:00 655.96 0.00 74.6 69.0 --
08/22/2018 17:00 655.94 0.00 77.0 68.0 --
08/22/2018 16:00 655.94 0.00 74.5 81.0 --
08/22/2018 15:00 655.92 0.00 68.5 100.0 --
08/22/2018 14:00 655.89 0.00 68.0 100.0 --
08/22/2018 13:00 655.86 0.00 65.5 100.0 --
08/22/2018 12:00 655.86 0.04 65.5 100.0 --
08/22/2018 11:00 655.83 1.53 63.7 100.0 --
08/22/2018 10:00 655.71 0.00 63.3 100.0 --
08/22/2018 09:00 655.71 0.03 63.3 100.0 --
08/22/2018 08:00 655.71 0.02 62.8 100.0 --
08/22/2018 07:00 655.72 0.00 62.6 100.0 --
08/22/2018 06:00 655.71 0.00 62.8 100.0 --
08/22/2018 05:00 655.72 0.00 62.9 100.0 --
08/22/2018 04:00 655.72 0.00 62.9 100.0 --
08/22/2018 03:00 655.71 0.00 63.3 100.0 --
08/22/2018 02:00 655.71 0.00 63.5 98.0 --
08/22/2018 01:00 655.72 0.00 63.8 97.0 --
08/22/2018 00:00 655.72 0.00 64.4 93.0 --
08/21/2018 23:00 655.71 0.00 65.5 91.0 --
08/21/2018 22:00 655.73 0.00 66.4 88.0 --
08/21/2018 21:00 655.73 0.00 66.4 88.0 --
08/21/2018 20:00 655.73 0.00 67.4 82.0 --
08/21/2018 19:00 655.74 0.00 69.6 75.0 --
08/21/2018 18:00 655.73 0.00 70.0 73.0 --
08/21/2018 17:00 655.73 0.00 69.2 72.0 --
08/21/2018 16:00 655.73 0.00 69.2 72.0 --
08/21/2018 15:00 655.74 0.00 67.7 74.0 --
08/21/2018 14:00 655.73 0.00 67.3 72.0 --
08/21/2018 13:00 655.74 0.00 66.6 75.0 --
08/21/2018 12:00 655.75 0.00 62.6 99.0 --
08/21/2018 11:00 655.75 0.00 62.6 99.0 --
08/21/2018 10:00 655.75 0.00 60.7 100.0 --
08/21/2018 09:00 655.76 0.00 54.2 100.0 --
08/21/2018 08:00 655.75 0.00 54.9 100.0 --
08/21/2018 07:00 655.76 0.00 55.6 100.0 --
08/21/2018 06:00 655.77 0.00 55.9 100.0 --
08/21/2018 05:00 655.76 0.00 56.8 100.0 --
08/21/2018 04:00 655.77 0.00 57.7 100.0 --
08/21/2018 03:00 655.77 0.00 58.7 100.0 --
08/21/2018 02:00 655.78 0.00 58.4 100.0 --
08/21/2018 01:00 655.78 0.00 58.3 100.0 --
08/21/2018 00:00 655.79 0.00 59.5 100.0 --
08/20/2018 23:00 655.79 0.00 60.8 100.0 --
08/20/2018 22:00 655.79 0.00 60.8 100.0 --
08/20/2018 21:00 655.79 0.00 63.9 88.0 --
08/20/2018 20:00 655.79 0.00 69.7 70.0 --
08/20/2018 19:00 655.80 0.00 69.5 74.0 --
08/20/2018 18:00 655.81 0.00 74.4 56.0 --
08/20/2018 17:00 655.82 0.00 73.9 61.0 --
08/20/2018 16:00 655.81 0.00 73.9 64.0 --
08/20/2018 15:00 655.83 0.00 72.5 66.0 --
08/20/2018 14:00 655.83 0.00 71.8 70.0 --
08/20/2018 13:00 655.83 0.00 70.0 71.0 --
08/20/2018 12:00 655.83 0.00 68.5 78.0 --
08/20/2018 11:00 655.84 0.00 64.8 90.0 --
08/20/2018 10:00 655.84 0.00 64.8 90.0 --
08/20/2018 09:00 655.84 0.00 62.2 98.0 --
08/20/2018 08:00 655.84 0.00 60.9 100.0 --
08/20/2018 07:00 655.85 0.00 60.7 100.0 --
08/20/2018 06:00 655.86 0.00 58.7 100.0 --
08/20/2018 05:00 655.86 0.00 58.7 100.0 --
08/20/2018 04:00 655.85 0.00 58.6 100.0 --
08/20/2018 03:00 655.87 0.00 58.6 100.0 --
08/20/2018 02:00 655.87 0.00 58.7 100.0 --
08/20/2018 01:00 655.88 0.00 60.4 100.0 --
08/20/2018 00:00 655.88 0.00 61.3 100.0 --
08/19/2018 23:00 655.89 0.00 61.3 98.0 --
08/19/2018 22:00 655.89 0.00 64.5 86.0 --
08/19/2018 21:00 655.89 0.00 67.3 77.0 --
08/19/2018 20:00 655.91 0.00 72.4 70.0 --
08/19/2018 19:00 655.91 0.00 72.4 70.0 --
08/19/2018 18:00 655.91 0.00 73.5 59.0 --
08/19/2018 17:00 655.92 0.00 75.0 62.0 --
08/19/2018 16:00 655.92 0.00 74.7 57.0 --
08/19/2018 15:00 655.92 0.00 74.2 61.0 --
08/19/2018 14:00 655.92 0.00 74.2 61.0 --
08/19/2018 13:00 655.93 0.00 72.5 57.0 --
08/19/2018 12:00 655.94 0.00 69.4 72.0 --
08/19/2018 11:00 655.93 0.00 66.6 86.0 --
08/19/2018 10:00 655.94 0.00 62.8 100.0 --
08/19/2018 09:00 655.94 0.00 62.8 100.0 --
08/19/2018 08:00 655.94 0.00 59.5 100.0 --
08/19/2018 07:00 655.95 0.00 60.7 100.0 --
08/19/2018 06:00 655.94 0.00 61.2 100.0 --
08/19/2018 05:00 655.94 0.00 62.4 98.7 --
08/19/2018 04:00 655.95 0.00 63.6 97.3 --
08/19/2018 03:00 655.95 0.00 64.8 96.0 --
08/19/2018 02:00 655.95 0.00 65.0 94.0 --
08/19/2018 01:00 655.95 0.00 66.2 90.0 --
08/19/2018 00:00 655.95 0.00 66.8 92.0 --
08/18/2018 23:00 655.95 0.00 67.9 92.0 --
08/18/2018 22:00 655.95 0.00 68.1 88.0 --
08/18/2018 21:00 655.94 0.00 69.6 81.0 --
08/18/2018 20:00 655.94 0.00 71.4 77.0 --
08/18/2018 19:00 655.94 0.00 71.3 77.0 --
08/18/2018 18:00 655.94 0.00 71.3 77.0 --
08/18/2018 17:00 655.95 0.00 71.8 79.0 --
08/18/2018 16:00 655.93 0.00 74.1 81.0 --
08/18/2018 15:00 655.92 0.00 73.6 85.0 --
08/18/2018 14:00 655.92 0.00 69.3 100.0 --
08/18/2018 13:00 655.92 0.04 69.3 100.0 --
08/18/2018 12:00 655.91 0.04 68.9 100.0 --
08/18/2018 11:00 655.89 0.00 73.2 97.0 --
08/18/2018 10:00 655.88 0.00 72.2 100.0 --
08/18/2018 09:00 655.88 0.00 71.7 100.0 --
08/18/2018 08:00 655.86 0.00 71.4 100.0 --
08/18/2018 07:00 655.86 0.00 72.1 100.0 --
08/18/2018 06:00 655.84 0.00 71.7 100.0 --
08/18/2018 05:00 655.84 0.00 71.7 100.0 --
08/18/2018 04:00 655.83 0.06 71.4 100.0 --
08/18/2018 03:00 655.81 0.00 73.7 100.0 --
08/18/2018 02:00 655.80 0.00 74.2 100.0 --
08/18/2018 01:00 655.78 0.29 73.2 100.0 --
08/18/2018 00:00 655.77 0.76 72.9 100.0 --
08/17/2018 23:00 655.71 0.30 72.6 100.0 --
08/17/2018 22:00 655.68 0.00 73.2 100.0 --
08/17/2018 21:00 655.67 0.00 73.8 99.0 --
08/17/2018 20:00 655.67 0.00 74.8 94.0 --
08/17/2018 19:00 655.68 0.00 75.3 95.0 --
08/17/2018 18:00 655.69 0.02 72.5 100.0 --
08/17/2018 17:00 655.68 0.00 77.5 77.0 --
08/17/2018 16:00 655.68 0.00 77.7 68.0 --
08/17/2018 15:00 655.68 0.00 77.5 63.0 --
08/17/2018 14:00 655.68 0.00 77.5 63.0 --
08/17/2018 13:00 655.68 0.00 74.3 68.0 --
08/17/2018 12:00 655.68 0.00 73.4 65.0 --
08/17/2018 11:00 655.69 0.00 72.8 72.0 --
08/17/2018 10:00 655.70 0.00 67.9 85.0 --
08/17/2018 09:00 655.68 0.00 65.7 100.0 --
08/17/2018 08:00 655.69 0.00 61.9 100.0 --
08/17/2018 07:00 655.69 0.00 61.9 100.0 --
08/17/2018 06:00 655.70 0.00 62.7 100.0 --
08/17/2018 05:00 655.70 0.00 64.0 100.0 --
08/17/2018 04:00 655.70 0.00 64.7 100.0 --
08/17/2018 03:00 655.70 0.00 65.1 100.0 --
08/17/2018 02:00 655.70 0.00 65.1 100.0 --
08/17/2018 01:00 655.70 0.00 66.7 100.0 --
08/17/2018 00:00 655.71 0.00 68.4 100.0 --
08/16/2018 23:00 655.71 0.00 70.1 98.0 --
08/16/2018 22:00 655.71 0.00 71.0 92.0 --
08/16/2018 21:00 655.72 0.00 75.5 79.0 --
08/16/2018 20:00 655.72 0.00 79.2 69.0 --
08/16/2018 19:00 655.71 0.00 82.1 50.0 --
08/16/2018 18:00 655.73 0.00 82.2 45.0 --
08/16/2018 17:00 655.72 0.00 82.2 42.0 --
08/16/2018 16:00 655.72 0.00 82.3 45.0 --
08/16/2018 15:00 655.75 0.01 82.0 54.0 --
08/16/2018 14:00 655.76 0.00 80.0 65.0 --
08/16/2018 13:00 655.74 0.00 78.3 70.0 --
08/16/2018 12:00 655.74 0.00 76.9 77.0 --
08/16/2018 11:00 655.74 0.00 76.9 77.0 --
08/16/2018 10:00 655.75 0.00 74.7 85.0 --
08/16/2018 09:00 655.75 0.00 67.4 100.0 --
08/16/2018 08:00 655.75 0.00 67.6 100.0 --
08/16/2018 07:00 655.76 0.00 67.3 100.0 --
08/16/2018 06:00 655.76 0.00 67.9 100.0 --
08/16/2018 05:00 655.76 0.00 69.1 100.0 --
08/16/2018 04:00 655.76 0.00 70.3 100.0 --
08/16/2018 03:00 655.76 0.00 70.1 100.0 --
08/16/2018 02:00 655.77 0.00 69.7 100.0 --
08/16/2018 01:00 655.77 0.00 71.7 100.0 --
08/16/2018 00:00 655.76 0.00 70.7 100.0 --
08/15/2018 23:00 655.77 0.00 71.3 100.0 --
08/15/2018 22:00 655.77 0.00 71.3 100.0 --
08/15/2018 21:00 655.77 0.00 74.5 100.0 --
08/15/2018 20:00 655.78 0.00 77.7 86.0 --
08/15/2018 19:00 655.77 0.00 83.1 70.0 --
08/15/2018 18:00 655.79 0.00 83.0 57.0 --
08/15/2018 17:00 655.78 0.00 81.1 64.0 --
08/15/2018 16:00 655.79 0.00 81.0 62.0 --
08/15/2018 15:00 655.79 0.00 81.0 62.0 --
08/15/2018 14:00 655.80 0.00 79.9 64.0 --
08/15/2018 13:00 655.80 0.00 74.7 85.0 --
08/15/2018 12:00 655.80 0.00 70.3 100.0 --
08/15/2018 11:00 655.81 0.00 68.6 100.0 --
08/15/2018 10:00 655.81 0.00 68.6 100.0 --
08/15/2018 09:00 655.81 0.00 68.0 100.0 --
08/15/2018 08:00 655.80 0.00 67.4 100.0 --
08/15/2018 07:00 655.81 0.00 68.0 100.0 --
08/15/2018 06:00 655.82 0.00 67.7 100.0 --
08/15/2018 05:00 655.81 0.00 67.6 100.0 --
08/15/2018 04:00 655.81 0.00 67.5 100.0 --
08/15/2018 03:00 655.81 0.00 68.0 100.0 --
08/15/2018 02:00 655.82 0.00 68.3 100.0 --
08/15/2018 01:00 655.81 0.00 68.6 100.0 --
08/15/2018 00:00 655.81 0.00 68.6 100.0 --
08/14/2018 23:00 655.81 0.00 68.6 100.0 --
08/14/2018 22:00 655.82 0.00 70.7 100.0 --
08/14/2018 21:00 655.82 0.00 74.1 93.0 --
08/14/2018 20:00 655.82 0.00 71.9 100.0 --
08/14/2018 19:00 655.82 0.00 71.9 100.0 --
08/14/2018 18:00 655.82 0.07 72.1 97.0 --
08/14/2018 17:00 655.81 0.03 71.0 95.0 --
08/14/2018 16:00 655.83 0.00 77.7 80.0 --
08/14/2018 15:00 655.82 0.00 75.9 90.0 --
08/14/2018 14:00 655.82 0.00 75.9 90.0 --
08/14/2018 13:00 655.81 0.00 72.6 100.0 --
08/14/2018 12:00 655.83 0.00 69.2 100.0 --
08/14/2018 11:00 655.83 0.00 68.3 100.0 --
08/14/2018 10:00 655.83 0.00 67.4 100.0 --
08/14/2018 09:00 655.84 0.00 67.3 100.0 --
08/14/2018 08:00 655.83 0.00 67.3 100.0 --
08/14/2018 07:00 655.84 0.00 67.2 100.0 --
08/14/2018 06:00 655.84 0.00 67.2 100.0 --
08/14/2018 05:00 655.85 0.09 67.3 100.0 --
08/14/2018 04:00 655.85 0.09 67.3 100.0 --
08/14/2018 03:00 655.83 0.03 67.4 100.0 --
08/14/2018 02:00 655.83 0.05 67.4 100.0 --
08/14/2018 01:00 655.82 0.09 67.4 100.0 --
08/14/2018 00:00 655.83 0.00 68.0 100.0 --
08/13/2018 23:00 655.83 0.00 68.5 100.0 --
08/13/2018 22:00 655.83 0.00 68.9 100.0 --
08/13/2018 21:00 655.83 0.00 69.3 100.0 --
08/13/2018 20:00 655.83 0.01 69.3 100.0 --
08/13/2018 19:00 655.84 0.00 70.1 100.0 --
08/13/2018 18:00 655.82 0.00 69.4 100.0 --
08/13/2018 17:00 655.84 0.00 69.3 100.0 --
08/13/2018 16:00 655.84 0.00 68.5 100.0 --
08/13/2018 15:00 655.85 0.00 68.1 100.0 --
08/13/2018 14:00 655.84 0.00 67.2 100.0 --
08/13/2018 13:00 655.84 0.00 66.7 100.0 --
08/13/2018 12:00 655.85 0.01 66.5 100.0 --
08/13/2018 11:00 655.84 0.00 66.1 100.0 --
08/13/2018 10:00 655.84 0.01 66.1 100.0 --
08/13/2018 09:00 655.85 0.01 66.1 100.0 --
08/13/2018 08:00 655.85 0.00 66.2 100.0 --
08/13/2018 07:00 655.85 0.00 66.0 100.0 --
08/13/2018 06:00 655.85 0.00 66.0 100.0 --
08/13/2018 05:00 655.85 0.00 66.0 100.0 --
08/13/2018 04:00 655.86 0.00 66.1 100.0 --
08/13/2018 03:00 655.85 0.00 66.7 100.0 --
08/13/2018 02:00 655.85 0.00 66.3 100.0 --
08/13/2018 01:00 655.85 0.00 66.3 100.0 --
08/13/2018 00:00 655.85 0.00 66.3 100.0 --
08/12/2018 23:00 655.84 0.00 66.6 100.0 --
08/12/2018 22:00 655.85 0.00 66.8 100.0 --
08/12/2018 21:00 655.84 0.00 67.5 100.0 --
08/12/2018 20:00 655.85 0.00 67.4 100.0 --
08/12/2018 19:00 655.84 0.00 66.9 100.0 --
08/12/2018 18:00 655.84 0.00 66.5 100.0 --
08/12/2018 17:00 655.84 0.00 66.5 100.0 --
08/12/2018 16:00 655.83 0.09 66.6 100.0 --
08/12/2018 15:00 655.81 0.00 66.6 100.0 --
08/12/2018 14:00 655.81 0.00 66.3 100.0 --
08/12/2018 13:00 655.80 0.00 65.9 100.0 --
08/12/2018 12:00 655.79 0.00 65.8 100.0 --
08/12/2018 11:00 655.79 0.00 64.6 100.0 --
08/12/2018 10:00 655.77 0.00 64.2 100.0 --
08/12/2018 09:00 655.76 0.00 63.9 100.0 --
08/12/2018 08:00 655.76 0.01 64.3 100.0 --
08/12/2018 07:00 655.75 0.05 63.6 100.0 --
08/12/2018 06:00 655.74 0.17 63.8 100.0 --
08/12/2018 05:00 655.71 0.00 64.3 100.0 --
08/12/2018 04:00 655.71 0.16 64.3 100.0 --
08/12/2018 03:00 655.70 0.59 64.4 100.0 --
08/12/2018 02:00 655.64 0.21 64.8 100.0 --
08/12/2018 01:00 655.63 0.15 65.1 100.0 --
08/12/2018 00:00 655.62 0.00 65.2 100.0 --
08/11/2018 23:00 655.62 0.16 65.2 100.0 --
08/11/2018 22:00 655.61 0.02 65.7 100.0 --
08/11/2018 21:00 655.61 0.00 65.9 100.0 --
08/11/2018 20:00 655.60 0.02 65.6 100.0 --
08/11/2018 19:00 655.61 0.00 65.0 100.0 --
08/11/2018 18:00 655.61 0.01 65.0 100.0 --
08/11/2018 17:00 655.60 0.05 64.6 100.0 --
08/11/2018 16:00 655.60 0.00 63.5 100.0 --
08/11/2018 15:00 655.60 0.00 64.8 90.0 --
08/11/2018 14:00 655.59 0.00 65.0 88.0 --
08/11/2018 13:00 655.60 0.00 62.7 99.0 --
08/11/2018 12:00 655.60 0.00 61.7 100.0 --
08/11/2018 11:00 655.59 0.01 60.8 100.0 --
08/11/2018 10:00 655.59 0.00 62.6 93.0 --
08/11/2018 09:00 655.60 0.00 61.7 97.0 --
08/11/2018 08:00 655.60 0.00 61.7 97.0 --
08/11/2018 07:00 655.60 0.00 61.1 100.0 --
08/11/2018 06:00 655.60 0.00 61.7 100.0 --
08/11/2018 05:00 655.60 0.00 61.5 100.0 --
08/11/2018 04:00 655.61 0.00 61.3 100.0 --
08/11/2018 03:00 655.61 0.00 61.1 100.0 --
08/11/2018 02:00 655.61 0.00 61.6 98.0 --
08/11/2018 01:00 655.60 0.00 62.8 95.0 --
08/11/2018 00:00 655.61 0.00 61.8 95.0 --
08/10/2018 23:00 655.60 0.00 64.8 82.0 --
08/10/2018 22:00 655.61 0.00 66.2 82.0 --
08/10/2018 21:00 655.61 0.00 71.5 68.0 --
08/10/2018 20:00 655.61 0.00 75.5 58.0 --
08/10/2018 19:00 655.60 0.00 77.4 55.0 --
08/10/2018 18:00 655.61 0.00 78.6 39.0 --
08/10/2018 17:00 655.61 0.00 78.6 39.0 --
08/10/2018 16:00 655.61 0.00 78.9 43.0 --
08/10/2018 15:00 655.61 0.00 77.1 44.0 --
08/10/2018 14:00 655.61 0.00 76.4 52.0 --
08/10/2018 13:00 655.61 0.00 73.5 68.0 --
08/10/2018 12:00 655.61 0.00 73.5 68.0 --
08/10/2018 11:00 655.62 0.00 72.2 74.0 --
08/10/2018 10:00 655.62 0.00 69.4 92.0 --
08/10/2018 09:00 655.63 0.00 64.5 100.0 --
08/10/2018 08:00 655.62 0.00 63.9 100.0 --
08/10/2018 07:00 655.62 0.00 63.9 100.0 --
08/10/2018 06:00 655.62 0.00 65.6 100.0 --
08/10/2018 05:00 655.62 0.00 65.2 99.0 --
08/10/2018 04:00 655.62 0.00 68.0 87.0 --
08/10/2018 03:00 655.63 0.00 65.9 100.0 --
08/10/2018 02:00 655.63 0.00 65.9 100.0 --
08/10/2018 01:00 655.63 0.00 67.6 100.0 --
08/10/2018 00:00 655.63 0.00 67.2 100.0 --
08/09/2018 23:00 655.63 0.00 68.6 100.0 --
08/09/2018 22:00 655.63 0.00 71.2 88.0 --
08/09/2018 21:00 655.63 0.00 71.2 88.0 --
08/09/2018 20:00 655.63 0.00 80.1 61.0 --
08/09/2018 19:00 655.64 0.00 83.0 50.0 --
08/09/2018 18:00 655.64 0.00 80.7 65.0 --
08/09/2018 17:00 655.64 0.00 79.5 73.0 --
08/09/2018 16:00 655.64 0.00 81.1 62.0 --
08/09/2018 15:00 655.64 0.00 80.5 60.0 --
08/09/2018 14:00 655.64 0.00 80.5 60.0 --
08/09/2018 13:00 655.64 0.00 78.6 66.0 --
08/09/2018 12:00 655.65 0.00 75.8 83.0 --
08/09/2018 11:00 655.65 0.00 72.4 100.0 --
08/09/2018 10:00 655.65 0.00 70.8 100.0 --
08/09/2018 09:00 655.65 0.00 70.8 100.0 --
08/09/2018 08:00 655.66 0.00 70.6 100.0 --
08/09/2018 07:00 655.65 0.00 71.1 100.0 --
08/09/2018 06:00 655.65 0.00 71.1 100.0 --
08/09/2018 05:00 655.66 0.00 71.5 100.0 --
08/09/2018 04:00 655.65 0.01 71.1 100.0 --
08/09/2018 03:00 655.66 0.06 71.7 100.0 --
08/09/2018 02:00 655.65 0.00 73.1 100.0 --
08/09/2018 01:00 655.65 0.00 72.1 100.0 --
08/09/2018 00:00 655.66 0.00 72.1 100.0 --
08/08/2018 23:00 655.66 0.00 72.1 100.0 --
08/08/2018 22:00 655.66 0.05 72.7 100.0 --
08/08/2018 21:00 655.68 0.45 73.7 100.0 --
08/08/2018 20:00 655.62 0.00 76.7 92.0 --
08/08/2018 19:00 655.63 0.00 79.4 88.0 --
08/08/2018 18:00 655.63 0.00 79.4 88.0 --
08/08/2018 17:00 655.63 0.00 80.0 81.0 --
08/08/2018 16:00 655.62 0.00 83.9 71.0 --
08/08/2018 15:00 655.63 0.00 80.8 76.0 --
08/08/2018 14:00 655.63 0.00 79.8 71.0 --
08/08/2018 13:00 655.63 0.00 79.8 71.0 --
08/08/2018 12:00 655.63 0.00 78.2 76.0 --
08/08/2018 11:00 655.64 0.00 73.4 100.0 --
08/08/2018 10:00 655.64 0.00 71.3 100.0 --
08/08/2018 09:00 655.64 0.00 69.3 100.0 --
08/08/2018 08:00 655.64 0.00 69.0 100.0 --
08/08/2018 07:00 655.64 0.00 69.0 100.0 --
08/08/2018 06:00 655.64 0.00 69.8 100.0 --
08/08/2018 05:00 655.64 0.00 69.8 100.0 --
08/08/2018 04:00 655.64 0.00 71.2 100.0 --
08/08/2018 03:00 655.64 0.00 71.2 100.0 --
08/08/2018 02:00 655.64 0.00 71.3 100.0 --
08/08/2018 01:00 655.64 0.00 71.9 100.0 --
08/08/2018 00:00 655.65 0.00 72.5 100.0 --
08/07/2018 23:00 655.66 0.00 72.5 100.0 --
08/07/2018 22:00 655.66 0.00 72.5 100.0 --
08/07/2018 21:00 655.66 0.33 73.1 100.0 --
08/07/2018 20:00 655.65 0.00 78.6 99.0 --
08/07/2018 19:00 655.64 0.00 80.4 90.0 --
08/07/2018 18:00 655.64 0.00 79.4 79.0 --
08/07/2018 17:00 655.63 0.05 75.4 87.0 --
08/07/2018 16:00 655.64 0.00 87.5 55.0 --
08/07/2018 15:00 655.64 0.00 87.5 55.0 --
08/07/2018 14:00 655.65 0.00 86.7 54.0 --
08/07/2018 13:00 655.65 0.00 83.9 68.0 --
08/07/2018 12:00 655.64 0.00 81.8 71.0 --
08/07/2018 11:00 655.65 0.00 78.4 79.0 --
08/07/2018 10:00 655.65 0.00 78.4 79.0 --
08/07/2018 09:00 655.65 0.00 74.4 97.0 --
08/07/2018 08:00 655.66 0.00 71.8 100.0 --
08/07/2018 07:00 655.66 0.00 71.1 100.0 --
08/07/2018 06:00 655.66 0.00 71.8 100.0 --
08/07/2018 05:00 655.67 0.00 73.3 100.0 --
08/07/2018 04:00 655.67 0.00 73.4 100.0 --
08/07/2018 03:00 655.67 0.00 73.4 100.0 --
08/07/2018 02:00 655.67 0.00 73.7 100.0 --
08/07/2018 01:00 655.66 0.00 74.3 99.0 --
08/07/2018 00:00 655.66 0.00 74.3 99.0 --
08/06/2018 23:00 655.67 0.00 74.8 95.0 --
08/06/2018 22:00 655.68 0.00 76.6 91.0 --
08/06/2018 21:00 655.68 0.00 84.4 76.0 --
08/06/2018 20:00 655.67 0.00 87.9 62.0 --
08/06/2018 19:00 655.67 0.00 87.9 62.0 --
08/06/2018 18:00 655.69 0.00 88.4 56.0 --
08/06/2018 17:00 655.70 0.00 88.0 49.0 --
08/06/2018 16:00 655.70 0.00 87.1 51.0 --
08/06/2018 15:00 655.69 0.00 86.2 53.0 --
08/06/2018 14:00 655.69 0.00 86.2 53.0 --
08/06/2018 13:00 655.71 0.00 85.0 59.0 --
08/06/2018 12:00 655.70 0.00 82.8 65.0 --
08/06/2018 11:00 655.70 0.00 79.9 78.0 --
08/06/2018 10:00 655.71 0.00 69.6 100.0 --
08/06/2018 09:00 655.71 0.00 66.3 100.0 --
08/06/2018 08:00 655.72 0.00 66.3 100.0 --
08/06/2018 07:00 655.72 0.00 66.3 100.0 --
08/06/2018 06:00 655.72 0.00 66.5 100.0 --
08/06/2018 05:00 655.72 0.00 68.8 100.0 --
08/06/2018 04:00 655.72 0.00 68.8 100.0 --
08/06/2018 03:00 655.73 0.00 69.5 100.0 --
08/06/2018 02:00 655.73 0.00 69.0 100.0 --
08/06/2018 01:00 655.73 0.00 71.5 100.0 --
08/06/2018 00:00 655.73 0.00 72.6 100.0 --
08/05/2018 23:00 655.74 0.00 73.9 100.0 --
08/05/2018 22:00 655.74 0.00 77.3 89.0 --
08/05/2018 21:00 655.74 0.00 77.3 89.0 --
08/05/2018 20:00 655.74 0.00 80.9 79.0 --
08/05/2018 19:00 655.75 0.00 82.9 73.0 --
08/05/2018 18:00 655.75 0.00 85.2 51.0 --
08/05/2018 17:00 655.75 0.00 85.0 53.0 --
08/05/2018 16:00 655.75 0.00 85.0 53.0 --
08/05/2018 15:00 655.75 0.00 84.2 54.0 --
08/05/2018 14:00 655.76 0.00 81.6 64.0 --
08/05/2018 13:00 655.76 0.00 79.3 67.0 --
08/05/2018 12:00 655.77 0.00 75.9 77.0 --
08/05/2018 11:00 655.77 0.00 75.9 77.0 --
08/05/2018 10:00 655.77 0.00 72.7 88.0 --
08/05/2018 09:00 655.77 0.00 65.0 100.0 --
08/05/2018 08:00 655.78 0.00 64.6 100.0 --
08/05/2018 07:00 655.77 0.00 65.1 100.0 --
08/05/2018 06:00 655.77 0.00 65.2 100.0 --
08/05/2018 05:00 655.79 0.00 65.9 100.0 --
08/05/2018 04:00 655.79 0.00 65.9 100.0 --
08/05/2018 03:00 655.79 0.00 66.4 100.0 --
08/05/2018 02:00 655.79 0.00 67.6 100.0 --
08/05/2018 01:00 655.79 0.00 67.6 100.0 --
08/05/2018 00:00 655.79 0.00 67.2 100.0 --
08/04/2018 23:00 655.79 0.00 70.4 100.0 --
08/04/2018 22:00 655.79 0.00 72.0 100.0 --
08/04/2018 21:00 655.80 0.00 74.1 90.0 --
08/04/2018 20:00 655.80 0.00 77.3 87.0 --
08/04/2018 19:00 655.79 0.00 78.2 77.0 --
08/04/2018 18:00 655.80 0.00 76.4 86.0 --
08/04/2018 17:00 655.80 0.05 74.2 99.0 --
08/04/2018 16:00 655.80 0.00 75.8 89.0 --
08/04/2018 15:00 655.80 0.00 75.8 89.0 --
08/04/2018 14:00 655.81 0.00 73.8 100.0 --
08/04/2018 13:00 655.81 0.01 71.9 100.0 --
08/04/2018 12:00 655.81 0.02 72.1 100.0 --
08/04/2018 11:00 655.81 0.02 71.8 100.0 --
08/04/2018 10:00 655.81 0.00 72.0 100.0 --
08/04/2018 09:00 655.81 0.00 69.1 100.0 --
08/04/2018 08:00 655.81 0.00 68.6 100.0 --
08/04/2018 07:00 655.81 0.00 68.5 100.0 --
08/04/2018 06:00 655.80 0.00 68.6 100.0 --
08/04/2018 05:00 655.80 0.00 68.6 100.0 --
08/04/2018 04:00 655.80 0.00 68.7 100.0 --
08/04/2018 03:00 655.80 0.00 68.8 100.0 --
08/04/2018 02:00 655.81 0.00 68.9 100.0 --
08/04/2018 01:00 655.80 0.00 70.2 100.0 --
08/04/2018 00:00 655.80 0.00 70.1 100.0 --
08/03/2018 23:00 655.81 0.00 70.4 100.0 --
08/03/2018 22:00 655.81 0.03 70.4 100.0 --
08/03/2018 21:00 655.80 0.19 70.7 100.0 --
08/03/2018 20:00 655.80 0.00 71.4 100.0 --
08/03/2018 19:00 655.80 0.13 71.4 100.0 --
08/03/2018 18:00 655.77 0.01 72.1 97.0 --
08/03/2018 17:00 655.79 0.00 82.3 72.0 --
08/03/2018 16:00 655.79 0.00 77.2 79.0 --
08/03/2018 15:00 655.79 0.30 73.5 100.0 --
08/03/2018 14:00 655.76 0.00 80.3 68.0 --
08/03/2018 13:00 655.77 0.00 78.8 72.0 --
08/03/2018 12:00 655.77 0.00 78.8 72.0 --
08/03/2018 11:00 655.77 0.00 77.7 73.0 --
08/03/2018 10:00 655.77 0.00 73.1 96.0 --
08/03/2018 09:00 655.77 0.00 73.1 96.0 --
08/03/2018 08:00 655.78 0.00 70.9 100.0 --
08/03/2018 07:00 655.79 0.00 70.2 100.0 --
08/03/2018 06:00 655.78 0.00 69.8 100.0 --
08/03/2018 05:00 655.79 0.00 69.8 100.0 --
08/03/2018 04:00 655.79 0.00 70.7 100.0 --
08/03/2018 03:00 655.80 0.00 71.5 95.0 --
08/03/2018 02:00 655.80 0.00 71.5 95.0 --
08/03/2018 01:00 655.80 0.00 71.1 96.0 --
08/03/2018 00:00 655.80 0.00 73.4 94.0 --
08/02/2018 23:00 655.80 0.00 73.4 94.0 --
08/02/2018 22:00 655.81 0.00 73.3 93.0 --
08/02/2018 21:00 655.80 0.00 75.6 87.0 --
08/02/2018 20:00 655.81 0.00 77.1 91.0 --
08/02/2018 19:00 655.82 0.00 82.5 74.0 --
08/02/2018 18:00 655.82 0.00 82.5 74.0 --
08/02/2018 17:00 655.82 0.00 84.6 56.0 --
08/02/2018 16:00 655.83 0.00 84.9 54.0 --
08/02/2018 15:00 655.84 0.00 83.9 57.0 --
08/02/2018 14:00 655.83 0.00 81.5 69.0 --
08/02/2018 13:00 655.84 0.00 79.9 74.0 --
08/02/2018 12:00 655.83 0.00 78.1 85.0 --
08/02/2018 11:00 655.83 0.00 78.1 85.0 --
08/02/2018 10:00 655.83 0.00 76.2 98.0 --
08/02/2018 09:00 655.83 0.00 72.1 100.0 --
08/02/2018 08:00 655.82 0.00 70.1 100.0 --
08/02/2018 07:00 655.83 0.00 69.9 100.0 --
08/02/2018 06:00 655.83 0.00 69.9 100.0 --
08/02/2018 05:00 655.82 0.00 70.1 100.0 --
08/02/2018 04:00 655.81 0.00 69.0 100.0 --
08/02/2018 03:00 655.80 0.00 68.6 100.0 --
08/02/2018 02:00 655.78 0.00 68.9 100.0 --
08/02/2018 01:00 655.78 0.00 68.9 100.0 --
08/02/2018 00:00 655.78 0.00 68.9 100.0 --
08/01/2018 23:00 655.76 0.01 69.3 100.0 --
08/01/2018 22:00 655.75 0.07 69.5 100.0 --
08/01/2018 21:00 655.72 0.00 70.4 100.0 --
08/01/2018 20:00 655.72 0.48 70.4 100.0 --
08/01/2018 19:00 655.69 1.29 70.3 100.0 --
08/01/2018 18:00 655.58 0.18 70.8 100.0 --
08/01/2018 17:00 655.57 0.00 72.2 95.0 --
08/01/2018 16:00 655.57 0.00 72.7 88.0 --
08/01/2018 15:00 655.57 0.00 72.7 88.0 --
08/01/2018 14:00 655.57 0.00 74.7 78.0 --
08/01/2018 13:00 655.58 0.00 72.3 76.0 --
08/01/2018 12:00 655.58 0.00 71.8 75.0 --
08/01/2018 11:00 655.57 0.00 70.0 84.0 --
08/01/2018 10:00 655.57 0.00 70.0 84.0 --
08/01/2018 09:00 655.58 0.00 67.9 99.0 --
08/01/2018 08:00 655.58 0.00 64.0 100.0 --
08/01/2018 07:00 655.58 0.00 62.6 100.0 --
08/01/2018 06:00 655.58 0.00 65.1 100.0 --
08/01/2018 05:00 655.57 0.00 65.5 100.0 --
08/01/2018 04:00 655.57 0.00 65.6 100.0 --
08/01/2018 03:00 655.59 0.00 66.2 100.0 --
08/01/2018 02:00 655.59 0.00 67.8 100.0 --
08/01/2018 01:00 655.58 0.00 68.7 100.0 --
08/01/2018 00:00 655.58 0.00 68.7 100.0 --
07/31/2018 23:00 655.58 0.00 70.3 99.0 --
07/31/2018 22:00 655.58 0.00 72.8 85.0 --
07/31/2018 21:00 655.58 0.00 77.4 74.0 --
07/31/2018 20:00 655.58 0.00 79.8 69.0 --
07/31/2018 19:00 655.58 0.00 79.8 69.0 --
07/31/2018 18:00 655.58 0.00 80.0 68.0 --
07/31/2018 17:00 655.59 0.00 82.3 46.0 --
07/31/2018 16:00 655.59 0.00 81.9 48.0 --
07/31/2018 15:00 655.59 0.00 78.9 53.0 --
07/31/2018 14:00 655.59 0.00 78.9 53.0 --
07/31/2018 13:00 655.60 0.00 77.4 60.0 --
07/31/2018 12:00 655.60 0.00 75.4 66.0 --
07/31/2018 11:00 655.59 0.00 74.7 71.0 --
07/31/2018 10:00 655.60 0.00 66.6 100.0 --
07/31/2018 09:00 655.60 0.00 64.1 100.0 --
07/31/2018 08:00 655.61 0.00 64.1 100.0 --
07/31/2018 07:00 655.61 0.00 64.1 100.0 --
07/31/2018 06:00 655.60 0.00 63.8 100.0 --
07/31/2018 05:00 655.61 0.00 63.4 100.0 --
07/31/2018 04:00 655.61 0.00 63.9 100.0 --
07/31/2018 03:00 655.60 0.00 63.5 100.0 --
07/31/2018 02:00 655.60 0.00 63.5 100.0 --
07/31/2018 01:00 655.60 0.00 63.0 100.0 --
07/31/2018 00:00 655.61 0.00 66.4 98.0 --
07/30/2018 23:00 655.60 0.00 66.9 97.0 --
07/30/2018 22:00 655.60 0.00 69.1 91.0 --
07/30/2018 21:00 655.60 0.00 69.1 91.0 --
07/30/2018 20:00 655.60 0.00 72.4 86.0 --
07/30/2018 19:00 655.61 0.00 77.8 55.0 --
07/30/2018 18:00 655.61 0.00 78.3 55.0 --
07/30/2018 17:00 655.62 0.00 77.3 49.0 --
07/30/2018 16:00 655.62 0.00 77.4 61.0 --
07/30/2018 15:00 655.61 0.00 76.1 52.0 --
07/30/2018 14:00 655.62 0.00 75.8 53.0 --
07/30/2018 13:00 655.62 0.00 74.8 58.0 --
07/30/2018 12:00 655.62 0.00 72.3 63.0 --
07/30/2018 11:00 655.62 0.00 72.3 63.0 --
07/30/2018 10:00 655.61 0.00 68.6 82.0 --
07/30/2018 09:00 655.63 0.00 60.1 100.0 --
07/30/2018 08:00 655.62 0.00 59.3 100.0 --
07/30/2018 07:00 655.63 0.00 59.6 100.0 --
07/30/2018 06:00 655.63 0.00 59.6 100.0 --
07/30/2018 05:00 655.63 0.00 59.8 100.0 --
07/30/2018 04:00 655.63 0.00 61.6 100.0 --
07/30/2018 03:00 655.63 0.00 61.4 100.0 --
07/30/2018 02:00 655.63 0.00 62.2 100.0 --
07/30/2018 01:00 655.63 0.00 62.2 100.0 --
07/30/2018 00:00 655.63 0.00 63.6 100.0 --
07/29/2018 23:00 655.63 0.00 65.7 97.0 --
07/29/2018 22:00 655.64 0.00 67.9 85.0 --
07/29/2018 21:00 655.63 0.00 72.1 73.0 --
07/29/2018 20:00 655.63 0.00 77.9 61.0 --
07/29/2018 19:00 655.64 0.00 77.1 50.0 --
07/29/2018 18:00 655.64 0.00 76.2 53.0 --
07/29/2018 17:00 655.65 0.00 75.8 54.0 --
07/29/2018 16:00 655.64 0.00 74.6 56.0 --
07/29/2018 15:00 655.64 0.00 74.6 56.0 --
07/29/2018 14:00 655.65 0.00 73.3 61.0 --
07/29/2018 13:00 655.65 0.00 70.7 74.0 --
07/29/2018 12:00 655.65 0.00 69.6 77.0 --
07/29/2018 11:00 655.65 0.00 68.1 92.0 --
07/29/2018 10:00 655.64 0.00 61.8 100.0 --
07/29/2018 09:00 655.65 0.00 60.4 100.0 --
07/29/2018 08:00 655.64 0.00 59.7 100.0 --
07/29/2018 07:00 655.64 0.00 60.5 100.0 --
07/29/2018 06:00 655.64 0.00 61.2 100.0 --
07/29/2018 05:00 655.64 0.00 62.0 100.0 --
07/29/2018 04:00 655.65 0.00 62.7 100.0 --
07/29/2018 03:00 655.65 0.00 63.5 100.0 --
07/29/2018 02:00 655.65 0.00 64.2 100.0 --
07/29/2018 01:00 655.65 0.00 65.0 100.0 --
07/29/2018 00:00 655.65 0.00 65.5 100.0 --
07/28/2018 23:00 655.64 0.00 66.7 100.0 --
07/28/2018 22:00 655.64 0.03 67.3 96.0 --
07/28/2018 21:00 655.66 0.01 69.1 100.0 --
07/28/2018 20:00 655.66 0.00 69.4 100.0 --
07/28/2018 19:00 655.65 0.18 68.4 100.0 --
07/28/2018 18:00 655.64 0.00 82.7 61.0 --
07/28/2018 17:00 655.65 0.00 83.3 54.0 --
07/28/2018 16:00 655.65 0.00 83.3 54.0 --
07/28/2018 15:00 655.65 0.00 80.7 60.0 --
07/28/2018 14:00 655.66 0.00 77.6 68.0 --
07/28/2018 13:00 655.66 0.00 75.7 74.0 --
07/28/2018 12:00 655.66 0.00 73.6 79.0 --
07/28/2018 11:00 655.66 0.00 71.4 98.0 --
07/28/2018 10:00 655.66 0.00 68.2 100.0 --
07/28/2018 09:00 655.66 0.00 68.2 100.0 --
07/28/2018 08:00 655.66 0.00 66.3 100.0 --
07/28/2018 07:00 655.66 0.00 65.3 100.0 --
07/28/2018 06:00 655.65 0.00 65.8 100.0 --
07/28/2018 05:00 655.67 0.00 66.7 100.0 --
07/28/2018 04:00 655.67 0.00 66.7 100.0 --
07/28/2018 03:00 655.67 0.00 66.3 100.0 --
07/28/2018 02:00 655.67 0.00 67.1 100.0 --
07/28/2018 01:00 655.67 0.02 67.1 100.0 --
07/28/2018 00:00 655.67 0.15 68.6 100.0 --
07/27/2018 23:00 655.66 0.06 68.0 100.0 --
07/27/2018 22:00 655.65 0.01 68.0 100.0 --
07/27/2018 21:00 655.67 0.26 67.3 100.0 --
07/27/2018 20:00 655.67 0.01 69.2 90.0 --
07/27/2018 19:00 655.64 0.01 72.6 82.0 --
07/27/2018 18:00 655.65 0.03 75.7 92.0 --
07/27/2018 17:00 655.65 0.00 84.9 52.0 --
07/27/2018 16:00 655.64 0.00 84.2 53.0 --
07/27/2018 15:00 655.66 0.00 83.8 53.0 --
07/27/2018 14:00 655.66 0.00 82.4 62.0 --
07/27/2018 13:00 655.66 0.00 79.4 69.0 --
07/27/2018 12:00 655.66 0.00 76.4 82.0 --
07/27/2018 11:00 655.66 0.00 72.2 99.0 --
07/27/2018 10:00 655.66 0.00 69.1 100.0 --
07/27/2018 09:00 655.67 0.00 65.2 100.0 --
07/27/2018 08:00 655.67 0.00 64.1 100.0 --
07/27/2018 07:00 655.67 0.00 64.2 100.0 --
07/27/2018 06:00 655.68 0.00 64.7 100.0 --
07/27/2018 05:00 655.68 0.00 64.7 100.0 --
07/27/2018 04:00 655.68 0.00 64.7 100.0 --
07/27/2018 03:00 655.68 0.00 64.7 100.0 --
07/27/2018 02:00 655.69 0.00 66.1 100.0 --
07/27/2018 01:00 655.69 0.00 67.5 100.0 --
07/27/2018 00:00 655.69 0.00 67.5 100.0 --
07/26/2018 23:00 655.69 0.00 68.5 100.0 --
07/26/2018 22:00 655.68 0.00 74.3 85.0 --
07/26/2018 21:00 655.69 0.00 78.0 83.0 --
07/26/2018 20:00 655.69 0.00 78.0 90.0 --
07/26/2018 19:00 655.69 0.00 78.0 90.0 --
07/26/2018 18:00 655.70 0.00 75.5 93.0 --
07/26/2018 17:00 655.69 0.03 71.2 100.0 --
07/26/2018 16:00 655.70 0.51 70.1 100.0 --
07/26/2018 15:00 655.64 0.00 72.7 100.0 --
07/26/2018 14:00 655.64 0.23 72.7 100.0 --
07/26/2018 13:00 655.62 0.00 76.5 78.0 --
07/26/2018 12:00 655.62 0.00 73.7 92.0 --
07/26/2018 11:00 655.62 0.00 72.4 100.0 --
07/26/2018 10:00 655.62 0.00 70.0 100.0 --
07/26/2018 09:00 655.62 0.00 70.0 100.0 --
07/26/2018 08:00 655.63 0.02 69.4 100.0 --
07/26/2018 07:00 655.64 0.10 69.6 100.0 --
07/26/2018 06:00 655.61 0.04 70.1 100.0 --
07/26/2018 05:00 655.62 0.02 70.3 100.0 --
07/26/2018 04:00 655.60 0.26 70.9 100.0 --
07/26/2018 03:00 655.59 0.00 71.0 100.0 --
07/26/2018 02:00 655.59 0.01 71.0 100.0 --
07/26/2018 01:00 655.59 0.01 71.3 100.0 --
07/26/2018 00:00 655.58 0.02 72.5 100.0 --
07/25/2018 23:00 655.59 0.17 72.4 100.0 --
07/25/2018 22:00 655.58 0.00 73.8 100.0 --
07/25/2018 21:00 655.58 0.00 73.8 100.0 --
07/25/2018 20:00 655.57 0.00 74.3 98.0 --
07/25/2018 19:00 655.58 0.01 74.0 100.0 --
07/25/2018 18:00 655.59 0.00 78.2 87.0 --
07/25/2018 17:00 655.59 0.00 76.4 95.0 --
07/25/2018 16:00 655.59 0.01 76.4 95.0 --
07/25/2018 15:00 655.58 0.00 76.7 87.0 --
07/25/2018 14:00 655.58 0.00 78.4 78.0 --
07/25/2018 13:00 655.58 0.00 77.1 88.0 --
07/25/2018 12:00 655.58 0.00 76.0 91.0 --
07/25/2018 11:00 655.58 0.00 76.0 91.0 --
07/25/2018 10:00 655.58 0.05 73.9 100.0 --
07/25/2018 09:00 655.58 0.00 71.0 100.0 --
07/25/2018 08:00 655.58 0.15 71.0 100.0 --
07/25/2018 07:00 655.58 0.00 71.3 100.0 --
07/25/2018 06:00 655.57 0.00 71.5 100.0 --
07/25/2018 05:00 655.57 0.00 71.4 100.0 --
07/25/2018 04:00 655.58 0.00 71.6 100.0 --
07/25/2018 03:00 655.58 0.00 72.1 100.0 --
07/25/2018 02:00 655.57 0.00 72.0 100.0 --
07/25/2018 01:00 655.58 0.00 72.6 100.0 --
07/25/2018 00:00 655.57 0.00 73.4 93.0 --
07/24/2018 23:00 655.58 0.00 74.3 89.0 --
07/24/2018 22:00 655.58 0.00 75.5 93.0 --
07/24/2018 21:00 655.57 0.00 77.3 92.0 --
07/24/2018 20:00 655.58 0.00 78.0 88.0 --
07/24/2018 19:00 655.57 0.06 74.0 100.0 --
07/24/2018 18:00 655.59 0.00 81.8 66.0 --
07/24/2018 17:00 655.59 0.00 81.8 66.0 --
07/24/2018 16:00 655.60 0.00 83.5 61.0 --
07/24/2018 15:00 655.58 0.00 82.6 62.0 --
07/24/2018 14:00 655.59 0.00 82.0 68.0 --
07/24/2018 13:00 655.59 0.00 78.8 79.0 --
07/24/2018 12:00 655.60 0.00 77.1 89.0 --
07/24/2018 11:00 655.59 0.01 73.7 100.0 --
07/24/2018 10:00 655.59 0.00 73.1 100.0 --
07/24/2018 09:00 655.52 0.00 72.0 100.0 --
07/24/2018 08:00 655.58 0.00 71.7 100.0 --
07/24/2018 07:00 655.59 0.00 71.6 100.0 --
07/24/2018 06:00 655.59 0.00 71.7 100.0 --
07/24/2018 05:00 655.58 0.00 71.7 100.0 --
07/24/2018 04:00 655.59 0.00 72.0 100.0 --
07/24/2018 03:00 655.59 0.00 72.0 100.0 --
07/24/2018 02:00 655.59 0.00 72.8 100.0 --
07/24/2018 01:00 655.60 0.00 73.3 100.0 --
07/24/2018 00:00 655.60 0.00 73.3 100.0 --
07/23/2018 23:00 655.59 0.00 73.6 100.0 --
07/23/2018 22:00 655.59 0.00 75.2 97.0 --
07/23/2018 21:00 655.60 0.00 78.4 88.0 --
07/23/2018 20:00 655.59 0.01 77.6 94.0 --
07/23/2018 19:00 655.58 0.06 76.8 100.0 --
07/23/2018 18:00 655.58 0.15 79.3 91.0 --
07/23/2018 17:00 655.57 0.06 76.9 94.0 --
07/23/2018 16:00 655.57 0.00 78.3 85.0 --
07/23/2018 15:00 655.56 0.00 78.9 88.0 --
07/23/2018 14:00 655.56 0.00 78.9 88.0 --
07/23/2018 13:00 655.56 0.03 75.1 100.0 --
07/23/2018 12:00 655.55 0.02 74.5 100.0 --
07/23/2018 11:00 655.55 0.00 73.4 100.0 --
07/23/2018 10:00 655.55 0.01 72.7 100.0 --
07/23/2018 09:00 655.55 0.00 72.5 100.0 --
07/23/2018 08:00 655.56 0.00 72.3 100.0 --
07/23/2018 07:00 655.56 0.00 72.3 100.0 --
07/23/2018 06:00 655.55 0.18 72.1 100.0 --
07/23/2018 05:00 655.54 0.00 71.5 100.0 --
07/23/2018 04:00 655.54 0.02 71.5 100.0 --
07/23/2018 03:00 655.54 0.02 70.8 100.0 --
07/23/2018 02:00 655.52 0.01 70.0 100.0 --
07/23/2018 01:00 655.53 0.18 70.0 100.0 --
07/23/2018 00:00 655.52 0.03 69.8 100.0 --
07/22/2018 23:00 655.52 0.00 70.3 100.0 --
07/22/2018 22:00 655.51 0.00 69.5 100.0 --
07/22/2018 21:00 655.51 0.00 69.5 100.0 --
07/22/2018 20:00 655.52 0.00 69.6 100.0 --
07/22/2018 19:00 655.52 0.00 69.0 100.0 --
07/22/2018 18:00 655.51 0.00 68.3 100.0 --
07/22/2018 17:00 655.52 0.00 67.4 100.0 --
07/22/2018 16:00 655.52 0.02 67.4 100.0 --
07/22/2018 15:00 655.51 0.08 64.7 100.0 --
07/22/2018 14:00 655.49 0.03 64.0 100.0 --
07/22/2018 13:00 655.50 0.07 62.6 100.0 --
07/22/2018 12:00 655.49 0.00 61.2 100.0 --
07/22/2018 11:00 655.49 0.05 61.2 100.0 --
07/22/2018 10:00 655.48 0.03 60.2 100.0 --
07/22/2018 09:00 655.48 0.00 60.5 100.0 --
07/22/2018 08:00 655.49 0.00 60.7 100.0 --
07/22/2018 07:00 655.49 0.00 60.7 100.0 --
07/22/2018 06:00 655.49 0.00 60.7 100.0 --
07/22/2018 05:00 655.49 0.00 60.8 100.0 --
07/22/2018 04:00 655.49 0.00 60.4 100.0 --
07/22/2018 03:00 655.49 0.00 60.0 100.0 --
07/22/2018 02:00 655.49 0.00 58.4 100.0 --
07/22/2018 01:00 655.49 0.00 58.4 100.0 --
07/22/2018 00:00 655.48 0.00 58.4 100.0 --
07/21/2018 23:00 655.49 0.00 64.4 78.0 --
07/21/2018 22:00 655.49 0.00 66.9 67.0 --
07/21/2018 21:00 655.51 0.00 70.9 59.0 --
07/21/2018 20:00 655.51 0.00 70.9 59.0 --
07/21/2018 19:00 655.49 0.00 73.8 59.0 --
07/21/2018 18:00 655.49 0.00 76.1 44.0 --
07/21/2018 17:00 655.50 0.00 76.3 50.0 --
07/21/2018 16:00 655.51 0.00 75.2 48.0 --
07/21/2018 15:00 655.51 0.00 75.2 48.0 --
07/21/2018 14:00 655.49 0.00 73.0 55.0 --
07/21/2018 13:00 655.50 0.00 68.9 76.0 --
07/21/2018 12:00 655.50 0.00 67.8 79.0 --
07/21/2018 11:00 655.50 0.00 64.1 86.0 --
07/21/2018 10:00 655.50 0.00 60.8 100.0 --
07/21/2018 09:00 655.50 0.00 55.5 100.0 --
07/21/2018 08:00 655.50 0.00 54.5 100.0 --
07/21/2018 07:00 655.50 0.00 55.2 100.0 --
07/21/2018 06:00 655.50 0.00 55.7 100.0 --
07/21/2018 05:00 655.49 0.00 56.9 100.0 --
07/21/2018 04:00 655.50 0.00 58.2 100.0 --
07/21/2018 03:00 655.51 0.00 59.4 100.0 --
07/21/2018 02:00 655.51 0.00 59.4 100.0 --
07/21/2018 01:00 655.50 0.00 60.5 98.0 --
07/21/2018 00:00 655.50 0.00 61.6 87.0 --
07/20/2018 23:00 655.50 0.00 64.0 77.0 --
07/20/2018 22:00 655.50 0.00 74.7 54.0 --
07/20/2018 21:00 -- -- -- -- --
07/20/2018 20:00 -- -- -- -- --
07/20/2018 19:00 -- -- -- -- --
07/20/2018 18:00 -- -- -- -- --
07/20/2018 17:00 -- -- -- -- --
07/20/2018 16:00 -- -- -- -- --